sensor_id;sensor_type;location;lat;lon;timestamp;pressure;altitude;pressure_sealevel;temperature;humidity
36454;BME280;22478;51.740;-1.314;2023-09-07T00:01:17;100574.61;;;22.49;97.75
36454;BME280;22478;51.740;-1.314;2023-09-07T00:03:44;100579.35;;;21.72;99.84
36454;BME280;22478;51.740;-1.314;2023-09-07T00:06:12;100580.89;;;21.12;100.00
36454;BME280;22478;51.740;-1.314;2023-09-07T00:08:39;100582.05;;;21.11;100.00
36454;BME280;22478;51.740;-1.314;2023-09-07T00:11:07;100583.38;;;21.29;100.00
36454;BME280;22478;51.740;-1.314;2023-09-07T00:13:34;100584.58;;;21.08;100.00
36454;BME280;22478;51.740;-1.314;2023-09-07T00:16:02;100587.51;;;20.52;100.00
36454;BME280;22478;51.740;-1.314;2023-09-07T00:18:29;100581.53;;;20.94;100.00
36454;BME280;22478;51.740;-1.314;2023-09-07T00:20:56;100581.02;;;20.98;100.00
36454;BME280;22478;51.740;-1.314;2023-09-07T00:23:23;100574.76;;;22.12;100.00
36454;BME280;22478;51.740;-1.314;2023-09-07T00:25:50;100574.51;;;21.77;100.00
36454;BME280;22478;51.740;-1.314;2023-09-07T00:28:17;100577.18;;;22.15;100.00
36454;BME280;22478;51.740;-1.314;2023-09-07T00:30:45;100579.63;;;20.26;100.00
36454;BME280;22478;51.740;-1.314;2023-09-07T00:33:12;100581.23;;;20.27;100.00
36454;BME280;22478;51.740;-1.314;2023-09-07T00:35:40;100576.98;;;21.69;100.00
36454;BME280;22478;51.740;-1.314;2023-09-07T00:38:07;100579.41;;;21.40;100.00
36454;BME280;22478;51.740;-1.314;2023-09-07T00:40:35;100583.97;;;20.35;100.00
36454;BME280;22478;51.740;-1.314;2023-09-07T00:43:02;100584.62;;;20.41;100.00
36454;BME280;22478;51.740;-1.314;2023-09-07T00:45:29;100581.66;;;21.34;100.00
36454;BME280;22478;51.740;-1.314;2023-09-07T00:47:57;100584.23;;;20.46;100.00
36454;BME280;22478;51.740;-1.314;2023-09-07T00:50:24;100581.55;;;22.27;98.83
36454;BME280;22478;51.740;-1.314;2023-09-07T00:52:51;100587.07;;;23.08;97.03
36454;BME280;22478;51.740;-1.314;2023-09-07T00:55:19;100588.68;;;22.58;94.43
36454;BME280;22478;51.740;-1.314;2023-09-07T00:57:47;100588.72;;;21.38;100.00
36454;BME280;22478;51.740;-1.314;2023-09-07T01:00:14;100586.44;;;21.21;100.00
36454;BME280;22478;51.740;-1.314;2023-09-07T01:02:41;100587.14;;;20.15;100.00
36454;BME280;22478;51.740;-1.314;2023-09-07T01:05:08;100583.80;;;21.67;100.00
36454;BME280;22478;51.740;-1.314;2023-09-07T01:07:40;100582.28;;;21.24;100.00
36454;BME280;22478;51.740;-1.314;2023-09-07T01:10:10;100590.83;;;17.25;100.00
36454;BME280;22478;51.740;-1.314;2023-09-07T01:12:37;100582.39;;;19.16;100.00
36454;BME280;22478;51.740;-1.314;2023-09-07T01:15:05;100587.42;;;16.82;100.00
36454;BME280;22478;51.740;-1.314;2023-09-07T01:17:32;100578.48;;;19.12;100.00
36454;BME280;22478;51.740;-1.314;2023-09-07T01:20:04;100574.49;;;20.16;100.00
36454;BME280;22478;51.740;-1.314;2023-09-07T01:22:31;100579.46;;;15.25;100.00
36454;BME280;22478;51.740;-1.314;2023-09-07T01:24:59;100577.02;;;15.67;100.00
36454;BME280;22478;51.740;-1.314;2023-09-07T01:27:28;100571.54;;;15.23;100.00
36454;BME280;22478;51.740;-1.314;2023-09-07T01:29:55;100564.72;;;16.85;100.00
36454;BME280;22478;51.740;-1.314;2023-09-07T01:32:22;100570.90;;;15.66;100.00
36454;BME280;22478;51.740;-1.314;2023-09-07T01:34:49;100560.36;;;18.49;100.00
36454;BME280;22478;51.740;-1.314;2023-09-07T01:37:16;100560.33;;;17.25;100.00
36454;BME280;22478;51.740;-1.314;2023-09-07T01:39:44;100561.75;;;14.37;100.00
36454;BME280;22478;51.740;-1.314;2023-09-07T01:42:11;100554.71;;;14.68;100.00
36454;BME280;22478;51.740;-1.314;2023-09-07T01:44:39;100558.76;;;14.69;100.00
36454;BME280;22478;51.740;-1.314;2023-09-07T01:47:06;100562.95;;;13.72;100.00
36454;BME280;22478;51.740;-1.314;2023-09-07T01:49:33;100568.11;;;14.10;100.00
36454;BME280;22478;51.740;-1.314;2023-09-07T01:52:01;100554.55;;;15.58;100.00
36454;BME280;22478;51.740;-1.314;2023-09-07T01:54:28;100551.74;;;15.55;100.00
36454;BME280;22478;51.740;-1.314;2023-09-07T01:56:55;100549.53;;;15.86;100.00
36454;BME280;22478;51.740;-1.314;2023-09-07T01:59:23;100546.55;;;14.97;100.00
36454;BME280;22478;51.740;-1.314;2023-09-07T02:01:50;100543.97;;;15.58;100.00
36454;BME280;22478;51.740;-1.314;2023-09-07T02:04:17;100537.38;;;16.49;100.00
36454;BME280;22478;51.740;-1.314;2023-09-07T02:06:44;100535.70;;;16.11;100.00
36454;BME280;22478;51.740;-1.314;2023-09-07T02:09:12;100553.15;;;13.10;100.00
36454;BME280;22478;51.740;-1.314;2023-09-07T02:11:39;100540.72;;;15.99;100.00
36454;BME280;22478;51.740;-1.314;2023-09-07T02:14:06;100539.69;;;15.33;100.00
36454;BME280;22478;51.740;-1.314;2023-09-07T02:16:34;100537.80;;;15.86;100.00
36454;BME280;22478;51.740;-1.314;2023-09-07T02:19:04;100540.09;;;15.47;100.00
36454;BME280;22478;51.740;-1.314;2023-09-07T02:21:31;100538.37;;;15.43;100.00
36454;BME280;22478;51.740;-1.314;2023-09-07T02:23:58;100535.44;;;15.25;100.00
36454;BME280;22478;51.740;-1.314;2023-09-07T02:26:25;100532.18;;;15.56;100.00
36454;BME280;22478;51.740;-1.314;2023-09-07T02:28:52;100530.58;;;15.90;100.00
36454;BME280;22478;51.740;-1.314;2023-09-07T02:31:20;100535.85;;;13.59;100.00
36454;BME280;22478;51.740;-1.314;2023-09-07T02:33:48;100531.67;;;14.72;100.00
36454;BME280;22478;51.740;-1.314;2023-09-07T02:36:15;100528.58;;;16.19;100.00
36454;BME280;22478;51.740;-1.314;2023-09-07T02:38:43;100531.38;;;16.05;100.00
36454;BME280;22478;51.740;-1.314;2023-09-07T02:41:10;100532.83;;;16.84;100.00
36454;BME280;22478;51.740;-1.314;2023-09-07T02:43:37;100536.91;;;15.84;100.00
36454;BME280;22478;51.740;-1.314;2023-09-07T02:46:04;100530.74;;;16.57;100.00
36454;BME280;22478;51.740;-1.314;2023-09-07T02:48:32;100526.04;;;17.76;100.00
36454;BME280;22478;51.740;-1.314;2023-09-07T02:50:59;100524.03;;;18.74;100.00
36454;BME280;22478;51.740;-1.314;2023-09-07T02:53:26;100528.22;;;18.07;100.00
36454;BME280;22478;51.740;-1.314;2023-09-07T02:55:53;100524.51;;;19.33;100.00
36454;BME280;22478;51.740;-1.314;2023-09-07T02:58:22;100521.18;;;18.38;100.00
36454;BME280;22478;51.740;-1.314;2023-09-07T03:00:48;100514.11;;;18.90;100.00
36454;BME280;22478;51.740;-1.314;2023-09-07T03:03:16;100513.85;;;15.37;100.00
36454;BME280;22478;51.740;-1.314;2023-09-07T03:05:43;100508.04;;;16.74;100.00
36454;BME280;22478;51.740;-1.314;2023-09-07T03:08:11;100514.20;;;14.47;100.00
36454;BME280;22478;51.740;-1.314;2023-09-07T03:10:39;100512.76;;;13.97;100.00
36454;BME280;22478;51.740;-1.314;2023-09-07T03:13:06;100515.36;;;14.56;100.00
36454;BME280;22478;51.740;-1.314;2023-09-07T03:15:33;100506.52;;;17.27;100.00
36454;BME280;22478;51.740;-1.314;2023-09-07T03:18:00;100503.60;;;16.87;100.00
36454;BME280;22478;51.740;-1.314;2023-09-07T03:20:28;100506.09;;;16.89;100.00
36454;BME280;22478;51.740;-1.314;2023-09-07T03:22:55;100504.33;;;16.89;100.00
36454;BME280;22478;51.740;-1.314;2023-09-07T03:25:22;100505.90;;;18.02;100.00
36454;BME280;22478;51.740;-1.314;2023-09-07T03:27:49;100507.71;;;17.98;100.00
36454;BME280;22478;51.740;-1.314;2023-09-07T03:30:17;100509.40;;;18.01;100.00
36454;BME280;22478;51.740;-1.314;2023-09-07T03:32:45;100507.91;;;16.94;100.00
36454;BME280;22478;51.740;-1.314;2023-09-07T03:35:12;100509.47;;;17.09;100.00
36454;BME280;22478;51.740;-1.314;2023-09-07T03:37:39;100509.81;;;17.87;100.00
36454;BME280;22478;51.740;-1.314;2023-09-07T03:40:07;100508.80;;;17.51;100.00
36454;BME280;22478;51.740;-1.314;2023-09-07T03:42:35;100508.02;;;18.17;100.00
36454;BME280;22478;51.740;-1.314;2023-09-07T03:45:03;100500.28;;;19.03;100.00
36454;BME280;22478;51.740;-1.314;2023-09-07T03:47:30;100502.37;;;19.56;100.00
36454;BME280;22478;51.740;-1.314;2023-09-07T03:49:58;100509.18;;;18.08;100.00
36454;BME280;22478;51.740;-1.314;2023-09-07T03:52:25;100504.47;;;17.96;100.00
36454;BME280;22478;51.740;-1.314;2023-09-07T03:54:54;100504.85;;;18.11;100.00
36454;BME280;22478;51.740;-1.314;2023-09-07T03:57:21;100502.79;;;17.60;100.00
36454;BME280;22478;51.740;-1.314;2023-09-07T03:59:48;100494.56;;;19.11;100.00
36454;BME280;22478;51.740;-1.314;2023-09-07T04:02:15;100495.21;;;17.93;100.00
36454;BME280;22478;51.740;-1.314;2023-09-07T04:04:43;100497.22;;;18.18;100.00
36454;BME280;22478;51.740;-1.314;2023-09-07T04:07:10;100498.95;;;18.14;100.00
36454;BME280;22478;51.740;-1.314;2023-09-07T04:09:37;100504.59;;;17.85;100.00
36454;BME280;22478;51.740;-1.314;2023-09-07T04:12:05;100506.80;;;17.03;100.00
36454;BME280;22478;51.740;-1.314;2023-09-07T04:14:33;100504.88;;;18.66;100.00
36454;BME280;22478;51.740;-1.314;2023-09-07T04:17:00;100494.39;;;19.82;100.00
36454;BME280;22478;51.740;-1.314;2023-09-07T04:19:27;100495.84;;;18.77;100.00
36454;BME280;22478;51.740;-1.314;2023-09-07T04:21:56;100484.79;;;18.69;100.00
36454;BME280;22478;51.740;-1.314;2023-09-07T04:24:23;100489.31;;;19.33;100.00
36454;BME280;22478;51.740;-1.314;2023-09-07T04:26:51;100492.36;;;20.15;100.00
36454;BME280;22478;51.740;-1.314;2023-09-07T04:29:18;100491.66;;;18.95;100.00
36454;BME280;22478;51.740;-1.314;2023-09-07T04:31:44;100493.59;;;20.26;100.00
36454;BME280;22478;51.740;-1.314;2023-09-07T04:34:12;100496.37;;;19.79;100.00
36454;BME280;22478;51.740;-1.314;2023-09-07T04:36:39;100494.99;;;19.66;100.00
36454;BME280;22478;51.740;-1.314;2023-09-07T04:39:07;100502.67;;;16.65;100.00
36454;BME280;22478;51.740;-1.314;2023-09-07T04:41:34;100497.82;;;15.76;100.00
36454;BME280;22478;51.740;-1.314;2023-09-07T04:44:01;100494.98;;;17.71;100.00
36454;BME280;22478;51.740;-1.314;2023-09-07T04:46:28;100491.06;;;16.93;100.00
36454;BME280;22478;51.740;-1.314;2023-09-07T04:48:55;100496.03;;;13.33;100.00
36454;BME280;22478;51.740;-1.314;2023-09-07T04:51:22;100486.01;;;13.72;100.00
36454;BME280;22478;51.740;-1.314;2023-09-07T04:53:50;100476.57;;;16.37;100.00
36454;BME280;22478;51.740;-1.314;2023-09-07T04:56:17;100473.75;;;17.51;100.00
36454;BME280;22478;51.740;-1.314;2023-09-07T04:58:44;100481.33;;;14.64;100.00
36454;BME280;22478;51.740;-1.314;2023-09-07T05:01:12;100485.66;;;14.83;100.00
36454;BME280;22478;51.740;-1.314;2023-09-07T05:03:39;100479.99;;;18.04;100.00
36454;BME280;22478;51.740;-1.314;2023-09-07T05:06:07;100490.40;;;14.50;100.00
36454;BME280;22478;51.740;-1.314;2023-09-07T05:08:35;100484.59;;;16.87;100.00
36454;BME280;22478;51.740;-1.314;2023-09-07T05:11:03;100484.66;;;18.43;100.00
36454;BME280;22478;51.740;-1.314;2023-09-07T05:13:31;100486.71;;;16.96;100.00
36454;BME280;22478;51.740;-1.314;2023-09-07T05:15:59;100488.49;;;17.43;100.00
36454;BME280;22478;51.740;-1.314;2023-09-07T05:18:27;100488.09;;;17.42;100.00
36454;BME280;22478;51.740;-1.314;2023-09-07T05:20:54;100491.13;;;17.59;100.00
36454;BME280;22478;51.740;-1.314;2023-09-07T05:23:22;100490.46;;;16.26;100.00
36454;BME280;22478;51.740;-1.314;2023-09-07T05:25:51;100488.81;;;17.54;100.00
36454;BME280;22478;51.740;-1.314;2023-09-07T05:28:20;100485.16;;;18.83;100.00
36454;BME280;22478;51.740;-1.314;2023-09-07T05:30:48;100494.06;;;15.51;100.00
36454;BME280;22478;51.740;-1.314;2023-09-07T05:33:17;100494.09;;;14.57;100.00
36454;BME280;22478;51.740;-1.314;2023-09-07T05:35:44;100498.75;;;15.23;100.00
36454;BME280;22478;51.740;-1.314;2023-09-07T05:38:12;100501.57;;;16.99;100.00
36454;BME280;22478;51.740;-1.314;2023-09-07T05:40:41;100512.10;;;15.55;100.00
36454;BME280;22478;51.740;-1.314;2023-09-07T05:43:09;100509.10;;;18.74;100.00
36454;BME280;22478;51.740;-1.314;2023-09-07T05:45:39;100517.43;;;14.08;100.00
36454;BME280;22478;51.740;-1.314;2023-09-07T05:48:07;100511.39;;;15.82;100.00
36454;BME280;22478;51.740;-1.314;2023-09-07T05:50:37;100509.39;;;16.29;100.00
36454;BME280;22478;51.740;-1.314;2023-09-07T05:53:06;100509.11;;;16.82;100.00
36454;BME280;22478;51.740;-1.314;2023-09-07T05:55:33;100511.02;;;17.15;100.00
36454;BME280;22478;51.740;-1.314;2023-09-07T05:58:05;100509.42;;;17.44;100.00
36454;BME280;22478;51.740;-1.314;2023-09-07T06:00:34;100511.91;;;15.81;100.00
36454;BME280;22478;51.740;-1.314;2023-09-07T06:03:02;100508.40;;;17.37;100.00
36454;BME280;22478;51.740;-1.314;2023-09-07T06:05:29;100510.57;;;17.53;100.00
36454;BME280;22478;51.740;-1.314;2023-09-07T06:07:56;100512.21;;;16.78;100.00
36454;BME280;22478;51.740;-1.314;2023-09-07T06:10:23;100512.43;;;15.96;100.00
36454;BME280;22478;51.740;-1.314;2023-09-07T06:12:51;100506.57;;;17.37;100.00
36454;BME280;22478;51.740;-1.314;2023-09-07T06:15:18;100511.91;;;13.40;100.00
36454;BME280;22478;51.740;-1.314;2023-09-07T06:17:46;100508.36;;;14.62;100.00
36454;BME280;22478;51.740;-1.314;2023-09-07T06:20:14;100513.62;;;14.02;100.00
36454;BME280;22478;51.740;-1.314;2023-09-07T06:22:41;100507.36;;;16.09;100.00
36454;BME280;22478;51.740;-1.314;2023-09-07T06:25:09;100501.02;;;17.91;100.00
36454;BME280;22478;51.740;-1.314;2023-09-07T06:27:36;100516.85;;;13.29;100.00
36454;BME280;22478;51.740;-1.314;2023-09-07T06:30:05;100507.11;;;15.04;100.00
36454;BME280;22478;51.740;-1.314;2023-09-07T06:32:32;100506.61;;;16.63;100.00
36454;BME280;22478;51.740;-1.314;2023-09-07T06:35:00;100509.30;;;17.23;100.00
36454;BME280;22478;51.740;-1.314;2023-09-07T06:37:27;100516.49;;;15.64;100.00
36454;BME280;22478;51.740;-1.314;2023-09-07T06:39:54;100519.75;;;15.22;100.00
36454;BME280;22478;51.740;-1.314;2023-09-07T06:42:21;100512.08;;;17.56;100.00
36454;BME280;22478;51.740;-1.314;2023-09-07T06:44:48;100511.01;;;17.13;100.00
36454;BME280;22478;51.740;-1.314;2023-09-07T06:47:15;100512.70;;;16.74;100.00
36454;BME280;22478;51.740;-1.314;2023-09-07T06:49:42;100516.31;;;13.86;100.00
36454;BME280;22478;51.740;-1.314;2023-09-07T06:52:09;100516.79;;;15.89;100.00
36454;BME280;22478;51.740;-1.314;2023-09-07T06:54:37;100524.23;;;12.99;100.00
36454;BME280;22478;51.740;-1.314;2023-09-07T06:57:06;100511.16;;;14.76;100.00
36454;BME280;22478;51.740;-1.314;2023-09-07T06:59:33;100506.42;;;15.00;100.00
36454;BME280;22478;51.740;-1.314;2023-09-07T07:02:01;100506.51;;;15.79;100.00
36454;BME280;22478;51.740;-1.314;2023-09-07T07:04:28;100519.69;;;12.87;100.00
36454;BME280;22478;51.740;-1.314;2023-09-07T07:06:55;100519.74;;;13.89;100.00
36454;BME280;22478;51.740;-1.314;2023-09-07T07:09:22;100523.10;;;13.02;100.00
36454;BME280;22478;51.740;-1.314;2023-09-07T07:11:50;100521.92;;;14.86;100.00
36454;BME280;22478;51.740;-1.314;2023-09-07T07:14:17;100525.21;;;13.71;100.00
36454;BME280;22478;51.740;-1.314;2023-09-07T07:16:44;100520.35;;;15.89;100.00
36454;BME280;22478;51.740;-1.314;2023-09-07T07:19:11;100535.09;;;12.15;100.00
36454;BME280;22478;51.740;-1.314;2023-09-07T07:21:39;100523.55;;;16.12;100.00
36454;BME280;22478;51.740;-1.314;2023-09-07T07:24:06;100519.04;;;17.74;100.00
36454;BME280;22478;51.740;-1.314;2023-09-07T07:26:33;100525.09;;;15.60;100.00
36454;BME280;22478;51.740;-1.314;2023-09-07T07:29:01;100540.73;;;12.71;100.00
36454;BME280;22478;51.740;-1.314;2023-09-07T07:31:29;100539.38;;;13.11;100.00
36454;BME280;22478;51.740;-1.314;2023-09-07T07:33:56;100535.37;;;13.99;100.00
36454;BME280;22478;51.740;-1.314;2023-09-07T07:36:23;100521.55;;;16.05;100.00
36454;BME280;22478;51.740;-1.314;2023-09-07T07:38:51;100517.34;;;14.25;100.00
36454;BME280;22478;51.740;-1.314;2023-09-07T07:41:18;100506.42;;;15.91;100.00
36454;BME280;22478;51.740;-1.314;2023-09-07T07:43:45;100501.04;;;18.05;100.00
36454;BME280;22478;51.740;-1.314;2023-09-07T07:46:12;100502.35;;;17.56;100.00
36454;BME280;22478;51.740;-1.314;2023-09-07T07:48:39;100499.03;;;16.53;100.00
36454;BME280;22478;51.740;-1.314;2023-09-07T07:51:07;100505.21;;;15.95;100.00
36454;BME280;22478;51.740;-1.314;2023-09-07T07:53:34;100511.20;;;15.21;100.00
36454;BME280;22478;51.740;-1.314;2023-09-07T07:56:01;100516.07;;;15.35;100.00
36454;BME280;22478;51.740;-1.314;2023-09-07T07:58:28;100516.40;;;15.74;100.00
36454;BME280;22478;51.740;-1.314;2023-09-07T08:00:55;100513.06;;;19.32;100.00
36454;BME280;22478;51.740;-1.314;2023-09-07T08:03:23;100516.81;;;18.08;100.00
36454;BME280;22478;51.740;-1.314;2023-09-07T08:05:50;100503.95;;;20.74;100.00
36454;BME280;22478;51.740;-1.314;2023-09-07T08:08:17;100504.42;;;23.38;100.00
36454;BME280;22478;51.740;-1.314;2023-09-07T08:10:45;100507.02;;;20.55;100.00
36454;BME280;22478;51.740;-1.314;2023-09-07T08:13:13;100498.13;;;24.78;92.40
36454;BME280;22478;51.740;-1.314;2023-09-07T08:15:40;100495.70;;;24.93;87.18
36454;BME280;22478;51.740;-1.314;2023-09-07T08:18:07;100504.27;;;20.81;100.00
36454;BME280;22478;51.740;-1.314;2023-09-07T08:20:35;100504.06;;;21.37;100.00
36454;BME280;22478;51.740;-1.314;2023-09-07T08:23:02;100496.86;;;24.62;87.38
36454;BME280;22478;51.740;-1.314;2023-09-07T08:25:29;100499.07;;;24.09;81.52
36454;BME280;22478;51.740;-1.314;2023-09-07T08:27:56;100497.10;;;27.61;69.95
36454;BME280;22478;51.740;-1.314;2023-09-07T08:30:23;100499.25;;;23.21;82.44
36454;BME280;22478;51.740;-1.314;2023-09-07T08:32:51;100492.46;;;26.67;72.18
36454;BME280;22478;51.740;-1.314;2023-09-07T08:35:19;100491.64;;;24.51;81.39
36454;BME280;22478;51.740;-1.314;2023-09-07T08:37:46;100497.26;;;22.69;90.80
36454;BME280;22478;51.740;-1.314;2023-09-07T08:40:15;100484.06;;;26.15;77.85
36454;BME280;22478;51.740;-1.314;2023-09-07T08:42:42;100486.57;;;24.53;77.95
36454;BME280;22478;51.740;-1.314;2023-09-07T08:45:14;100485.14;;;24.58;82.31
36454;BME280;22478;51.740;-1.314;2023-09-07T08:47:45;100487.72;;;23.87;80.88
36454;BME280;22478;51.740;-1.314;2023-09-07T08:50:14;100480.32;;;25.12;76.00
36454;BME280;22478;51.740;-1.314;2023-09-07T08:52:42;100482.32;;;23.43;85.07
36454;BME280;22478;51.740;-1.314;2023-09-07T08:55:11;100482.39;;;22.00;91.41
36454;BME280;22478;51.740;-1.314;2023-09-07T08:57:39;100485.70;;;21.24;98.31
36454;BME280;22478;51.740;-1.314;2023-09-07T09:00:07;100480.31;;;21.87;94.18
36454;BME280;22478;51.740;-1.314;2023-09-07T09:02:34;100473.04;;;24.26;87.90
36454;BME280;22478;51.740;-1.314;2023-09-07T09:05:01;100484.97;;;18.87;100.00
36454;BME280;22478;51.740;-1.314;2023-09-07T09:07:29;100482.35;;;18.82;100.00
36454;BME280;22478;51.740;-1.314;2023-09-07T09:10:03;100479.66;;;21.39;100.00
36454;BME280;22478;51.740;-1.314;2023-09-07T09:12:30;100485.40;;;19.57;100.00
36454;BME280;22478;51.740;-1.314;2023-09-07T09:14:59;100488.02;;;19.07;100.00
36454;BME280;22478;51.740;-1.314;2023-09-07T09:17:26;100488.67;;;18.23;100.00
36454;BME280;22478;51.740;-1.314;2023-09-07T09:19:53;100488.73;;;20.03;100.00
36454;BME280;22478;51.740;-1.314;2023-09-07T09:22:20;100487.37;;;22.93;100.00
36454;BME280;22478;51.740;-1.314;2023-09-07T09:24:47;100484.70;;;21.47;100.00
36454;BME280;22478;51.740;-1.314;2023-09-07T09:27:15;100487.14;;;22.65;100.00
36454;BME280;22478;51.740;-1.314;2023-09-07T09:29:42;100489.57;;;22.60;100.00
36454;BME280;22478;51.740;-1.314;2023-09-07T09:32:13;100490.62;;;22.07;100.00
36454;BME280;22478;51.740;-1.314;2023-09-07T09:34:43;100492.74;;;23.03;100.00
36454;BME280;22478;51.740;-1.314;2023-09-07T09:37:15;100492.47;;;20.15;100.00
36454;BME280;22478;51.740;-1.314;2023-09-07T09:39:42;100493.56;;;22.68;100.00
36454;BME280;22478;51.740;-1.314;2023-09-07T09:42:10;100488.30;;;22.97;100.00
36454;BME280;22478;51.740;-1.314;2023-09-07T09:44:39;100490.27;;;23.20;100.00
36454;BME280;22478;51.740;-1.314;2023-09-07T09:47:08;100484.51;;;23.05;100.00
36454;BME280;22478;51.740;-1.314;2023-09-07T09:49:35;100489.97;;;21.20;100.00
36454;BME280;22478;51.740;-1.314;2023-09-07T09:52:05;100479.10;;;23.02;93.44
36454;BME280;22478;51.740;-1.314;2023-09-07T09:54:35;100470.43;;;26.41;79.14
36454;BME280;22478;51.740;-1.314;2023-09-07T09:57:03;100465.97;;;27.59;64.52
36454;BME280;22478;51.740;-1.314;2023-09-07T09:59:30;100470.03;;;25.21;71.26
36454;BME280;22478;51.740;-1.314;2023-09-07T10:01:58;100463.85;;;26.31;66.02
36454;BME280;22478;51.740;-1.314;2023-09-07T10:04:25;100456.83;;;31.21;55.41
36454;BME280;22478;51.740;-1.314;2023-09-07T10:06:55;100453.14;;;32.42;49.54
36454;BME280;22478;51.740;-1.314;2023-09-07T10:09:22;100448.40;;;32.13;45.02
36454;BME280;22478;51.740;-1.314;2023-09-07T10:11:53;100449.93;;;33.52;42.88
36454;BME280;22478;51.740;-1.314;2023-09-07T10:14:21;100447.00;;;34.22;42.10
36454;BME280;22478;51.740;-1.314;2023-09-07T10:16:50;100447.36;;;31.58;46.13
36454;BME280;22478;51.740;-1.314;2023-09-07T10:19:19;100435.93;;;34.16;42.68
36454;BME280;22478;51.740;-1.314;2023-09-07T10:21:47;100444.35;;;27.50;51.60
36454;BME280;22478;51.740;-1.314;2023-09-07T10:24:31;100440.54;;;31.32;47.43
36454;BME280;22478;51.740;-1.314;2023-09-07T10:27:00;100431.73;;;33.48;44.40
36454;BME280;22478;51.740;-1.314;2023-09-07T10:29:28;100433.22;;;28.83;52.14
36454;BME280;22478;51.740;-1.314;2023-09-07T10:31:56;100426.04;;;33.24;42.14
36454;BME280;22478;51.740;-1.314;2023-09-07T10:34:39;100420.72;;;34.46;40.17
36454;BME280;22478;51.740;-1.314;2023-09-07T10:37:06;100423.93;;;29.45;45.84
36454;BME280;22478;51.740;-1.314;2023-09-07T10:39:33;100418.11;;;35.57;38.36
36454;BME280;22478;51.740;-1.314;2023-09-07T10:42:00;100420.06;;;30.69;42.66
36454;BME280;22478;51.740;-1.314;2023-09-07T10:44:28;100419.69;;;29.90;47.39
36454;BME280;22478;51.740;-1.314;2023-09-07T10:46:57;100411.69;;;32.48;43.24
36454;BME280;22478;51.740;-1.314;2023-09-07T10:49:24;100416.74;;;29.94;44.55
36454;BME280;22478;51.740;-1.314;2023-09-07T10:51:51;100411.36;;;33.28;40.45
36454;BME280;22478;51.740;-1.314;2023-09-07T10:54:23;100417.44;;;29.18;43.74
36454;BME280;22478;51.740;-1.314;2023-09-07T10:56:50;100402.56;;;35.68;36.98
36454;BME280;22478;51.740;-1.314;2023-09-07T10:59:17;100405.41;;;31.41;39.56
36454;BME280;22478;51.740;-1.314;2023-09-07T11:01:45;100408.34;;;29.17;43.78
36454;BME280;22478;51.740;-1.314;2023-09-07T11:04:13;100400.83;;;32.73;41.59
36454;BME280;22478;51.740;-1.314;2023-09-07T11:06:41;100402.51;;;27.27;47.73
36454;BME280;22478;51.740;-1.314;2023-09-07T11:09:09;100394.98;;;32.73;39.89
36454;BME280;22478;51.740;-1.314;2023-09-07T11:11:36;100387.69;;;34.10;39.15
36454;BME280;22478;51.740;-1.314;2023-09-07T11:14:04;100395.67;;;27.34;45.37
36454;BME280;22478;51.740;-1.314;2023-09-07T11:16:33;100388.58;;;31.94;41.83
36454;BME280;22478;51.740;-1.314;2023-09-07T11:19:03;100385.33;;;33.54;38.43
36454;BME280;22478;51.740;-1.314;2023-09-07T11:21:31;100391.19;;;29.60;45.08
36454;BME280;22478;51.740;-1.314;2023-09-07T11:23:58;100384.58;;;32.91;40.31
36454;BME280;22478;51.740;-1.314;2023-09-07T11:26:26;100389.27;;;30.75;40.72
36454;BME280;22478;51.740;-1.314;2023-09-07T11:28:53;100383.88;;;32.15;40.10
36454;BME280;22478;51.740;-1.314;2023-09-07T11:31:20;100384.54;;;33.99;35.85
36454;BME280;22478;51.740;-1.314;2023-09-07T11:33:48;100381.65;;;35.05;36.43
36454;BME280;22478;51.740;-1.314;2023-09-07T11:36:15;100379.66;;;36.76;34.43
36454;BME280;22478;51.740;-1.314;2023-09-07T11:38:44;100378.91;;;35.41;35.09
36454;BME280;22478;51.740;-1.314;2023-09-07T11:41:11;100367.28;;;37.65;33.53
36454;BME280;22478;51.740;-1.314;2023-09-07T11:43:38;100364.96;;;39.78;31.22
36454;BME280;22478;51.740;-1.314;2023-09-07T11:46:06;100365.55;;;39.46;29.97
36454;BME280;22478;51.740;-1.314;2023-09-07T11:48:33;100358.98;;;37.51;31.73
36454;BME280;22478;51.740;-1.314;2023-09-07T11:51:01;100359.06;;;31.38;36.80
36454;BME280;22478;51.740;-1.314;2023-09-07T11:53:28;100357.62;;;29.80;39.45
36454;BME280;22478;51.740;-1.314;2023-09-07T11:55:56;100345.20;;;36.56;33.10
36454;BME280;22478;51.740;-1.314;2023-09-07T11:58:24;100342.17;;;35.12;33.25
36454;BME280;22478;51.740;-1.314;2023-09-07T12:00:51;100346.14;;;32.08;36.40
36454;BME280;22478;51.740;-1.314;2023-09-07T12:03:18;100350.64;;;32.92;34.37
36454;BME280;22478;51.740;-1.314;2023-09-07T12:05:45;100346.67;;;35.88;33.43
36454;BME280;22478;51.740;-1.314;2023-09-07T12:08:13;100342.24;;;38.15;30.81
36454;BME280;22478;51.740;-1.314;2023-09-07T12:10:40;100352.07;;;34.79;33.89
36454;BME280;22478;51.740;-1.314;2023-09-07T12:13:08;100345.10;;;34.12;34.74
36454;BME280;22478;51.740;-1.314;2023-09-07T12:15:35;100343.80;;;34.48;33.29
36454;BME280;22478;51.740;-1.314;2023-09-07T12:18:03;100331.99;;;36.16;31.79
36454;BME280;22478;51.740;-1.314;2023-09-07T12:20:30;100335.24;;;35.34;31.55
36454;BME280;22478;51.740;-1.314;2023-09-07T12:22:57;100343.06;;;28.56;38.51
36454;BME280;22478;51.740;-1.314;2023-09-07T12:25:24;100336.89;;;31.02;36.96
36454;BME280;22478;51.740;-1.314;2023-09-07T12:27:52;100326.52;;;36.33;31.75
36454;BME280;22478;51.740;-1.314;2023-09-07T12:30:20;100334.38;;;33.86;33.08
36454;BME280;22478;51.740;-1.314;2023-09-07T12:32:48;100327.46;;;37.63;30.18
36454;BME280;22478;51.740;-1.314;2023-09-07T12:35:15;100327.90;;;36.53;30.07